createdAt,value
2018-07-24T17:03:55.134Z,45.50
2018-07-24T17:06:29.660Z,47.20
2018-07-24T17:09:06.814Z,46.40
2018-07-24T17:11:41.365Z,46.10
2018-07-24T17:14:15.856Z,46.00
2018-07-24T17:16:50.229Z,44.00
2018-07-24T17:19:24.667Z,43.00
2018-07-24T17:21:59.197Z,42.20
2018-07-24T17:24:33.690Z,40.00
2018-07-24T17:27:08.281Z,40.80
2018-07-24T17:29:42.728Z,40.20
2018-07-24T17:32:17.242Z,39.90
2018-07-24T17:34:51.599Z,39.20
2018-07-24T17:37:25.972Z,37.90
2018-07-24T17:40:00.374Z,37.00
2018-07-24T17:42:34.733Z,36.70
2018-07-24T17:45:09.153Z,36.40
2018-07-24T17:47:43.422Z,38.40
2018-07-24T17:50:18.117Z,38.60
2018-07-24T17:52:52.702Z,39.70
2018-07-24T17:55:27.440Z,40.80
2018-07-24T17:58:01.872Z,42.30
2018-07-24T18:00:36.203Z,42.80
2018-07-24T18:03:10.732Z,44.30
2018-07-24T18:05:45.195Z,46.00
2018-07-24T18:08:19.583Z,46.80
2018-07-24T18:10:54.117Z,47.40
2018-07-24T18:13:28.660Z,48.00
2018-07-24T18:16:03.114Z,48.40
2018-07-24T18:18:37.589Z,49.40
2018-07-24T18:21:11.931Z,50.00
2018-07-24T18:23:46.498Z,50.90
2018-07-24T18:26:20.862Z,51.90
2018-07-24T18:28:55.314Z,52.40
2018-07-24T18:31:29.856Z,53.30
2018-07-24T18:34:04.338Z,54.50
2018-07-24T18:36:38.724Z,55.10
2018-07-24T18:39:13.232Z,56.10
2018-07-24T18:41:47.596Z,56.60
2018-07-24T18:44:22.055Z,57.60
2018-07-24T18:46:56.552Z,58.40
2018-07-24T18:49:30.827Z,59.10
2018-07-24T18:52:05.372Z,59.90
2018-07-24T18:54:39.913Z,62.40
2018-07-24T18:57:14.480Z,62.70
2018-07-24T18:59:48.869Z,63.80
2018-07-24T19:02:23.599Z,64.70
2018-07-24T19:04:58.013Z,66.00
2018-07-24T19:07:32.360Z,68.30
2018-07-24T19:10:07.115Z,70.20
2018-07-24T19:12:41.947Z,72.00
2018-07-24T19:15:16.283Z,72.90
2018-07-24T19:17:50.620Z,74.70
2018-07-24T19:20:25.485Z,76.00
2018-07-24T19:22:59.776Z,77.50
2018-07-24T19:25:34.060Z,79.20
2018-07-24T19:28:08.345Z,80.10
2018-07-24T19:30:42.605Z,81.60
2018-07-24T19:33:17.032Z,82.70
2018-07-24T19:35:51.392Z,83.30
2018-07-24T19:38:25.960Z,85.00
2018-07-24T19:41:00.262Z,86.50
2018-07-24T19:43:34.683Z,87.70
2018-07-24T19:46:09.127Z,89.70
2018-07-24T19:48:43.755Z,91.00
2018-07-24T19:51:18.202Z,91.00
2018-07-24T19:53:52.686Z,91.40
2018-07-24T19:56:27.147Z,92.50
2018-07-24T19:59:01.618Z,93.40
2018-07-24T20:01:36.029Z,93.50
2018-07-24T20:04:10.547Z,93.70
2018-07-24T20:06:44.871Z,94.00
2018-07-24T20:09:19.216Z,93.90
2018-07-24T20:11:53.569Z,94.90
2018-07-24T20:14:27.826Z,94.90
2018-07-24T20:17:02.156Z,95.20
2018-07-24T20:19:36.423Z,95.40
2018-07-24T20:22:10.944Z,95.60
2018-07-24T20:24:45.643Z,96.10
2018-07-24T20:27:20.050Z,96.10
2018-07-24T20:29:54.358Z,97.10
2018-07-24T20:32:28.734Z,97.30
2018-07-24T20:35:03.472Z,97.70
2018-07-24T20:40:16.677Z,98.40
2018-07-24T20:42:57.455Z,98.80
2018-07-24T20:45:39.599Z,99.10
2018-07-24T20:48:16.284Z,99.90
2018-07-24T20:50:55.501Z,99.90
2018-07-24T20:53:30.325Z,99.90
2018-07-24T20:56:05.060Z,99.90
2018-07-24T20:58:43.944Z,99.90
2018-07-24T21:01:19.678Z,99.90
2018-07-24T21:04:00.376Z,99.90
2018-07-24T21:06:45.047Z,99.90
2018-07-24T21:09:20.784Z,99.90
2018-07-24T21:11:58.174Z,99.90
2018-07-24T21:14:34.851Z,99.90
2018-07-24T21:17:09.464Z,99.90
2018-07-24T21:19:45.700Z,99.90
2018-07-24T21:22:22.968Z,99.90
2018-07-24T21:24:59.026Z,99.90
2018-07-24T21:27:34.007Z,99.90
2018-07-24T21:30:09.769Z,99.90
2018-07-24T21:32:44.722Z,99.90
2018-07-24T21:35:19.658Z,99.90
2018-07-24T21:37:54.651Z,99.90
2018-07-24T21:40:29.613Z,99.90
2018-07-24T21:43:05.021Z,99.90
2018-07-24T21:45:39.648Z,99.90
2018-07-24T21:48:14.131Z,99.90
2018-07-24T21:50:49.098Z,99.90
2018-07-24T21:53:23.522Z,99.90
2018-07-24T21:55:59.365Z,99.90
2018-07-24T21:58:34.261Z,99.90
2018-07-24T22:01:12.493Z,99.90
2018-07-24T22:03:47.961Z,99.90
2018-07-24T22:06:22.577Z,99.90
2018-07-24T22:08:57.298Z,99.90
2018-07-24T22:11:36.608Z,99.90
2018-07-24T22:14:11.135Z,99.90
2018-07-24T22:16:45.599Z,99.90
2018-07-24T22:19:20.726Z,99.90
2018-07-24T22:21:55.390Z,99.90
2018-07-24T22:24:29.997Z,99.90
2018-07-24T22:27:04.638Z,99.90
2018-07-24T22:29:40.281Z,99.90
2018-07-24T22:32:16.399Z,99.90
2018-07-24T22:34:51.069Z,99.90
2018-07-24T22:37:25.552Z,99.90
2018-07-24T22:40:00.853Z,99.90
2018-07-24T22:42:35.453Z,99.90
2018-07-24T22:45:10.125Z,99.90
2018-07-24T22:47:44.710Z,99.90
2018-07-24T22:50:19.322Z,99.90
2018-07-24T22:55:28.260Z,99.90
2018-07-24T22:58:03.014Z,99.90
2018-07-24T23:00:38.502Z,99.90
2018-07-24T23:03:15.060Z,99.90
2018-07-24T23:05:51.200Z,99.90
2018-07-24T23:08:25.758Z,99.90
2018-07-24T23:11:00.640Z,99.90
2018-07-24T23:13:35.955Z,99.90
2018-07-24T23:16:11.262Z,99.90
2018-07-24T23:18:45.786Z,99.90
2018-07-24T23:21:20.953Z,99.90
2018-07-24T23:23:56.279Z,99.90
2018-07-24T23:26:30.987Z,99.90
2018-07-24T23:29:05.679Z,99.90
2018-07-24T23:31:40.897Z,99.90
2018-07-24T23:34:15.575Z,99.90
2018-07-24T23:36:51.253Z,99.90
2018-07-24T23:39:27.215Z,99.90
2018-07-24T23:42:01.938Z,99.90
2018-07-24T23:44:39.112Z,99.90
2018-07-24T23:47:13.834Z,99.90
2018-07-24T23:49:50.676Z,99.90
2018-07-24T23:52:25.244Z,99.90
2018-07-24T23:55:00.758Z,99.90
2018-07-24T23:57:35.407Z,99.90
